Airfield :







YOU CAN JOIN US ON...

 
LOGIN :

Register | Disclaimer

   EN    FR    IT 

 









Legend :    VFR   Marginal VFR   IFR   Intensive IFR   Very Intensive IFR
Visi :
Ceiling :
>= 8 km
>= 3000ft
5 to 8 km
1000 to 3000 ft
1500m to 5 km
500 to 1000 ft
800 to 1500m
200 to 500 ft
< 800m
< 200 ft
Symbols :   Thunderstorms  Fog  Heavy snow  Heavy precipitations  Wind > 20 kt






- Airport Elevation : 129 ft
- IATA code : YVP


CYVP - Kuujjuak

CURRENT METAR :
  • 090300Z 13005KT 090V150 15SM SCT072 04/M00 A3012 RMK AC4 SLP203

EXPIRED METARs :
  • 090200Z 10004KT 15SM FEW040 BKN075 04/M00 A3013 RMK SC1AC5 SLP207
  • 090100Z 11003KT 15SM FEW040 FEW060 BKN080 04/M00 A3012 RMK SC1SC1AC4 SLP205

TAF TAF CYVP
Valid from the 09 at 00:00 until the 09 at 12:00 UTC


082339Z 0900/0912 09007KT P6SM BKN040 BKN060
TEMPO 0900/0906 BKN020 BKN040
BECMG 0902/0904 15007KT
FM090600 18005KT P6SM BKN040
TEMPO 0906/0912 BKN020 RMK NXT FCST BY 090600Z
CZUL FIR / North America



MET'MAP, your aeronautical weather chart ! - Copyright ORBIFLY December 2007 - Disclaimer

ORBIFLY MET'MAP TEAM :

Programming & Development : Alexandra Zaïnal
Concept & original design : Baudouin d'Aumeries
Assistance for programming : Marc-Olivier Méhu
Technical & hardware support : Manuel Goepfert

Contact : metmap@orbifly.com




SOURCES & CREDITS :

   NOAA